FLIGHT DETAILS
Pilot: AWX0001 Luca Nicolini Aircraft: EMBRAER LEGACY 650 AWX_I-LUKA_WHITE Distance: 2245NM
Departure SLLP Arrival SCCI Duration 04:52
Validation Validated Type Charter Tail Number I-AWX1
ZFW 16405 Block Fuel/Initial FOB 5,299/0 Flight Fuel 5,165
Passengers 14 Cargo 0 Alternate SAWH
Departure Time Cruise Speed Flight Level 36000
Flight Type IFR Aircraft Type E35L Weight Unit Kg
Date 27-10-2019 Pilot Comments Network VATSIM
Crashed No Validator Comments Flight Rating 97

 ROUTE
ROUTE IROBO1 IROBO UL309 LOA UQ815 MORMI UQ803 ISGUD UL302 SIMOK UV204 TBN V551 AMB UM424 LINER UQ805 DOTGU UL670 BAL UG550 EGOSA
REMARKS
 FLIGHT FAILURES
Crashed OK Beacon off & Engine Running OK KIAS Above 250 below 10000 FT OK
Lights OFF below 10000 FT Fail Lights ON above 10000 FT Fail Stall OK
Overspeed OK Flight paused OK Refueling OK
Slew detected OK Taxi & Taxi lights off OK Take off & lights off OK
Landing & lights off OK Landed in not planned airport OK Taxi Speed Fail
Wrong altimeter in Take off OK Wrong altimeter in Landing OK
 LANDING ANALYSIS
Landing wind 257º/10 kt Landing heading 237
Landing VS: -7.69 ft/min Landing IAS: 118.66 kt
Landing Force G 1 G Landing Bank 1.4
Landing Pitch 5 Landing Flaps 22
Navigation Lights ON Landing Lights ON
Beacon Lights ON Strobe Lights ON
 FLIGHT MAP
 ALTITUDE CHART
 FLIGHT FINANCIAL REPORT
Onboard Advertising 1,000.00
WiFi Onboard Connection(14). Number of PAX: 14 196.00
Number of PAX:14 .Price per PAX:561.25 7,857.50
Aerodrome Facility Charges -20.00
HUB Expenses -232.00
Aircraft Insurance(0.7). Distance: 2245 -1,571.50
Enroute Facility Charges(0.04). Distance: 2245 -89.80
Airport Charges(2). Number of PAX: 14 -28.00
Maintenance Costs(1.1). Distance: 2245 -2,469.50
Administration Expenses(0.2). Distance: 2245 -449.00
Fuel Expenses(0.6). Fuel used: 5299.4 -3,179.64
TOTAL 1,014.06
 MAIN EVENTS
DATE EVENTIASALTITUDE
2019-10-27 17:02:21 SIM ACARS version 1.4.0013360
2019-10-27 17:02:21 BOARDING013360
2019-10-27 17:05:50 STARTING ENGINE 2 013360
2019-10-27 17:06:20 STARTING ENGINE 1 013359
2019-10-27 17:08:56 FLAPS EXTENSION 33 % 013359
2019-10-27 17:09:02 FLAPS EXTENSION 67 % 013359
2019-10-27 17:09:12 FLAPS EXTENSION 33 % 013359
2019-10-27 17:09:12 FLAPS EXTENSION 0 % 013359
2019-10-27 17:09:13 FLAPS EXTENSION 33 % 013359
2019-10-27 17:10:19 TAXI TO THE RWY 413354
2019-10-27 17:10:30 FLAPS EXTENSION 67 % 1013348
2019-10-27 17:11:12 FLAPS EXTENSION 33 % 713319
2019-10-27 17:11:17 FLAPS EXTENSION 67 % 813317
2019-10-27 17:15:23 ROLLING FOR TAKE OFF4113172
2019-10-27 17:20:48 TAKE OFF12313252
2019-10-27 17:20:48 LIGHTS ON ABOVE 10000 ft12313252
2019-10-27 17:20:51 GEAR UP12813276
2019-10-27 17:21:15 FLAPS EXTENSION 33 % 14113552
2019-10-27 17:21:56 FLAPS EXTENSION 0 % 18013934
2019-10-27 17:33:38 CRUISE22236538
2019-10-27 18:54:38 CLIMBING27236296
2019-10-27 18:55:58 CRUISE27537076
2019-10-27 21:50:48 DESCEND27736215
2019-10-27 22:06:10 LIGHTS OFF BELOW 10000 ft2409500
2019-10-27 22:14:18 CRUISE1792980
2019-10-27 22:14:58 DESCEND1672770
2019-10-27 22:15:05 FLAPS EXTENSION 33 % 1642707
2019-10-27 22:18:38 CRUISE1591468
2019-10-27 22:21:29 GEAR DOWN1571320
2019-10-27 22:21:48 DESCEND2021255
2019-10-27 22:22:54 FLAPS EXTENSION 67 % 146291
2019-10-27 22:23:30 LANDING119132
2019-10-27 22:24:04 TAXI TO THE GATE20144
2019-10-27 22:24:12 FLAPS EXTENSION 33 % 0142
2019-10-27 22:24:12 FLAPS EXTENSION 0 % 0142
2019-10-27 22:25:07 FLAPS EXTENSION 3 % 3135
2019-10-27 22:25:07 FLAPS EXTENSION 7 % 3135
2019-10-27 22:25:07 FLAPS EXTENSION 10 % 3135
2019-10-27 22:25:07 FLAPS EXTENSION 13 % 3135
2019-10-27 22:25:07 FLAPS EXTENSION 14 % 3135
2019-10-27 22:25:08 FLAPS EXTENSION 18 % 3135
2019-10-27 22:25:08 FLAPS EXTENSION 21 % 3134
2019-10-27 22:25:08 FLAPS EXTENSION 25 % 3134
2019-10-27 22:25:08 FLAPS EXTENSION 24 % 4134
2019-10-27 22:25:08 FLAPS EXTENSION 22 % 4134
2019-10-27 22:25:08 FLAPS EXTENSION 20 % 4134
2019-10-27 22:25:08 FLAPS EXTENSION 22 % 4134
2019-10-27 22:25:09 FLAPS EXTENSION 25 % 4134
2019-10-27 22:25:09 FLAPS EXTENSION 26 % 4134
2019-10-27 22:25:09 TAXI SPEED ABOVE 25 KTS4134
2019-10-27 22:25:09 FLAPS EXTENSION 28 % 4134
2019-10-27 22:25:09 FLAPS EXTENSION 31 % 4134
2019-10-27 22:25:09 FLAPS EXTENSION 32 % 4134
2019-10-27 22:25:09 FLAPS EXTENSION 34 % 4134
2019-10-27 22:25:12 FLAPS EXTENSION 37 % 5133
2019-10-27 22:25:12 FLAPS EXTENSION 43 % 5133
2019-10-27 22:25:13 FLAPS EXTENSION 45 % 5133
2019-10-27 22:25:13 FLAPS EXTENSION 46 % 5133
2019-10-27 22:25:13 FLAPS EXTENSION 47 % 5133
2019-10-27 22:25:13 FLAPS EXTENSION 49 % 5132
2019-10-27 22:25:13 FLAPS EXTENSION 49 % 5132
2019-10-27 22:25:13 FLAPS EXTENSION 50 % 5132
2019-10-27 22:25:14 FLAPS EXTENSION 52 % 5132
2019-10-27 22:25:14 FLAPS EXTENSION 52 % 5132
2019-10-27 22:25:14 FLAPS EXTENSION 52 % 5132
2019-10-27 22:25:14 FLAPS EXTENSION 50 % 5132
2019-10-27 22:25:14 FLAPS EXTENSION 49 % 5132
2019-10-27 22:25:15 FLAPS EXTENSION 50 % 6132
2019-10-27 22:25:15 FLAPS EXTENSION 52 % 6132
2019-10-27 22:25:15 FLAPS EXTENSION 53 % 6132
2019-10-27 22:25:16 FLAPS EXTENSION 53 % 6132
2019-10-27 22:25:16 FLAPS EXTENSION 50 % 6132
2019-10-27 22:25:16 FLAPS EXTENSION 51 % 6132
2019-10-27 22:27:36 STOPPING ENGINE 1 18132
2019-10-27 22:27:37 STOPPING ENGINE 2 18132
2019-10-27 22:30:03 FLAPS EXTENSION 47 % 18132
2019-10-27 22:30:03 FLAPS EXTENSION 41 % 18132
2019-10-27 22:30:03 FLAPS EXTENSION 40 % 18132
2019-10-27 22:30:03 FLAPS EXTENSION 39 % 18132
2019-10-27 22:30:03 FLAPS EXTENSION 38 % 18132
2019-10-27 22:30:04 FLAPS EXTENSION 40 % 18132
2019-10-27 22:30:04 FLAPS EXTENSION 43 % 18132
2019-10-27 22:30:04 FLAPS EXTENSION 46 % 18132
2019-10-27 22:30:04 FLAPS EXTENSION 47 % 18132
2019-10-27 22:30:04 FLAPS EXTENSION 48 % 18132
2019-10-27 22:30:04 FLAPS EXTENSION 48 % 18132
2019-10-27 22:30:04 FLAPS EXTENSION 49 % 18132
2019-10-27 22:30:05 FLAPS EXTENSION 50 % 18132
2019-10-27 22:30:05 FLAPS EXTENSION 50 % 18132
2019-10-27 22:30:05 FLAPS EXTENSION 50 % 18132
2019-10-27 22:30:05 FLAPS EXTENSION 50 % 18132
2019-10-27 22:30:05 FLAPS EXTENSION 52 % 18132
2019-10-27 22:30:05 FLAPS EXTENSION 52 % 18132
2019-10-27 22:30:06 FLAPS EXTENSION 52 % 18132
2019-10-27 22:30:06 FLAPS EXTENSION 52 % 18132
2019-10-27 22:30:06 FLAPS EXTENSION 52 % 18132
2019-10-27 22:30:06 FLAPS EXTENSION 52 % 18132
2019-10-27 22:30:06 FLAPS EXTENSION 51 % 18132
2019-10-27 22:30:07 FLAPS EXTENSION 51 % 18132
2019-10-27 22:30:14 FLAPS EXTENSION 51 % 18132
2019-10-27 22:30:14 FLAPS EXTENSION 53 % 18132
2019-10-27 22:30:14 FLAPS EXTENSION 53 % 18132
2019-10-27 22:30:14 FLAPS EXTENSION 54 % 18132
2019-10-27 22:30:15 FLAPS EXTENSION 54 % 18132
2019-10-27 22:30:15 FLAPS EXTENSION 53 % 18132
2019-10-27 22:30:15 FLAPS EXTENSION 50 % 18132
2019-10-27 22:30:15 FLAPS EXTENSION 50 % 18132
2019-10-27 22:30:16 FLAPS EXTENSION 51 % 18132
2019-10-27 22:30:16 FLAPS EXTENSION 52 % 18132
2019-10-27 22:30:16 FLAPS EXTENSION 51 % 18132
2019-10-27 22:30:17 FLAPS EXTENSION 51 % 18132
2019-10-27 22:30:20 FLAPS EXTENSION 51 % 18132
2019-10-27 22:30:21 FLAPS EXTENSION 52 % 18132
2019-10-27 22:30:22 FLAPS EXTENSION 54 % 18132
2019-10-27 22:30:22 FLAPS EXTENSION 55 % 18132
2019-10-27 22:30:22 FLAPS EXTENSION 57 % 18132
2019-10-27 22:30:22 FLAPS EXTENSION 58 % 18132
2019-10-27 22:30:22 FLAPS EXTENSION 59 % 18132
2019-10-27 22:30:22 FLAPS EXTENSION 60 % 18132
2019-10-27 22:30:22 FLAPS EXTENSION 60 % 18132
2019-10-27 22:30:22 FLAPS EXTENSION 61 % 18132
2019-10-27 22:30:22 FLAPS EXTENSION 61 % 18132
2019-10-27 22:30:23 FLAPS EXTENSION 63 % 18132
2019-10-27 22:30:23 FLAPS EXTENSION 63 % 18132
2019-10-27 22:30:23 FLAPS EXTENSION 64 % 18132
2019-10-27 22:30:24 FLAPS EXTENSION 65 % 18132
2019-10-27 22:30:24 FLAPS EXTENSION 66 % 18132
2019-10-27 22:30:24 FLAPS EXTENSION 68 % 18132
2019-10-27 22:30:24 FLAPS EXTENSION 69 % 18132
2019-10-27 22:30:24 FLAPS EXTENSION 69 % 18132
2019-10-27 22:30:25 FLAPS EXTENSION 69 % 18132
2019-10-27 22:30:25 FLAPS EXTENSION 66 % 18132
2019-10-27 22:30:25 FLAPS EXTENSION 63 % 18132
2019-10-27 22:30:25 FLAPS EXTENSION 63 % 18132
2019-10-27 22:30:25 FLAPS EXTENSION 63 % 18132
2019-10-27 22:30:25 FLAPS EXTENSION 64 % 18132
2019-10-27 22:30:26 FLAPS EXTENSION 65 % 18132
2019-10-27 22:30:26 FLAPS EXTENSION 65 % 18132
2019-10-27 22:30:26 FLAPS EXTENSION 65 % 18132
2019-10-27 22:30:26 FLAPS EXTENSION 65 % 18132
2019-10-27 22:30:26 FLAPS EXTENSION 65 % 18132
2019-10-27 22:30:26 FLAPS EXTENSION 66 % 18132
2019-10-27 22:30:26 FLAPS EXTENSION 76 % 18132
2019-10-27 22:30:27 FLAPS EXTENSION 79 % 18132
2019-10-27 22:30:27 FLAPS EXTENSION 82 % 18132
2019-10-27 22:30:27 FLAPS EXTENSION 92 % 18132
2019-10-27 22:30:27 FLAPS EXTENSION 96 % 18132
2019-10-27 22:30:27 FLAPS EXTENSION 97 % 18132
2019-10-27 22:30:27 FLAPS EXTENSION 97 % 18132
2019-10-27 22:30:27 FLAPS EXTENSION 97 % 18132
2019-10-27 22:30:27 FLAPS EXTENSION 97 % 18132
2019-10-27 22:30:28 FLAPS EXTENSION 96 % 18132
2019-10-27 22:30:28 FLAPS EXTENSION 94 % 18132
2019-10-27 22:30:28 FLAPS EXTENSION 81 % 18132
2019-10-27 22:30:28 FLAPS EXTENSION 76 % 18132
2019-10-27 22:30:28 FLAPS EXTENSION 73 % 18132
2019-10-27 22:30:28 FLAPS EXTENSION 65 % 18132
2019-10-27 22:30:28 FLAPS EXTENSION 64 % 18132
2019-10-27 22:30:28 FLAPS EXTENSION 60 % 18132
2019-10-27 22:30:28 FLAPS EXTENSION 54 % 18132
2019-10-27 22:30:29 FLAPS EXTENSION 50 % 18132
2019-10-27 22:30:29 FLAPS EXTENSION 48 % 18132
2019-10-27 22:30:29 FLAPS EXTENSION 48 % 18132
2019-10-27 22:30:29 FLAPS EXTENSION 48 % 18132
2019-10-27 22:30:29 FLAPS EXTENSION 49 % 18132
2019-10-27 22:30:29 FLAPS EXTENSION 50 % 18132
2019-10-27 22:30:35 FLAPS EXTENSION 46 % 18132
2019-10-27 22:30:35 FLAPS EXTENSION 21 % 18132
2019-10-27 22:30:35 FLAPS EXTENSION 0 % 18132
 ACARS DATA
DATE IASGSALTITUDEFUEL CONSUMED OATFLIGHT STATUS
2019-10-27 17:03:21001336018BOARDING
2019-10-27 17:04:21001336018BOARDING
2019-10-27 17:05:21001336018BOARDING
2019-10-27 17:06:21021335928BOARDING
2019-10-27 17:07:21011335868BOARDING
2019-10-27 17:08:210013358108BOARDING
2019-10-27 17:09:210013358148BOARDING
2019-10-27 17:10:2151013352198TAXI TO THE RWY
2019-10-27 17:11:2181613314238TAXI TO THE RWY
2019-10-27 17:12:21152713269288TAXI TO THE RWY
2019-10-27 17:13:21132513232328TAXI TO THE RWY
2019-10-27 17:14:21203413186368TAXI TO THE RWY
2019-10-27 17:15:21343713170448TAXI TO THE RWY
2019-10-27 17:16:218013239659TAXI TO THE RWY
2019-10-27 17:17:2121413229709TAXI TO THE RWY
2019-10-27 17:18:21102513198749TAXI TO THE RWY
2019-10-27 17:19:2126613165799TAXI TO THE RWY
2019-10-27 17:20:21496313181929TAXI TO THE RWY
2019-10-27 17:21:21148169135561228CLIMBING
2019-10-27 17:22:21224284139861527CLIMBING
2019-10-27 17:23:2121529717578182-2CLIMBING
2019-10-27 17:24:2121029320406208-10CLIMBING
2019-10-27 17:25:2121229622892236-17CLIMBING
2019-10-27 17:26:2121231225352265-24CLIMBING
2019-10-27 17:27:2121231827704296-31CLIMBING
2019-10-27 17:28:2121232529840327-37CLIMBING
2019-10-27 17:29:2121233431571356-42CLIMBING
2019-10-27 17:30:2121234133089385-47CLIMBING
2019-10-27 17:31:2121234834489413-51CLIMBING
2019-10-27 17:32:2121236035656441-54CLIMBING
2019-10-27 17:33:2121737736538469-56CLIMBING
2019-10-27 17:34:2123440436514492-56CRUISE
2019-10-27 17:35:2125243236513515-56CRUISE
2019-10-27 17:36:2126945836511539-56CRUISE
2019-10-27 17:37:2126945836502557-56CRUISE
2019-10-27 17:38:2127045836439575-56CRUISE
2019-10-27 17:39:2127045736261592-56CRUISE
2019-10-27 17:40:2127045736260610-56CRUISE
2019-10-27 17:41:2127045736259627-56CRUISE
2019-10-27 17:42:2127045736259645-56CRUISE
2019-10-27 17:43:2127045736260663-56CRUISE
2019-10-27 17:44:2127045736258681-56CRUISE
2019-10-27 17:45:2127045736258698-56CRUISE
2019-10-27 17:46:2127045736258716-56CRUISE
2019-10-27 17:47:2127045736258734-56CRUISE
2019-10-27 17:48:2127045736248751-56CRUISE
2019-10-27 17:49:2127045736183769-56CRUISE
2019-10-27 17:50:2127045736177787-56CRUISE
2019-10-27 17:51:2127045736176804-56CRUISE
2019-10-27 17:52:2127045736160822-56CRUISE
2019-10-27 17:53:2127045736122839-56CRUISE
2019-10-27 17:54:2127045736122857-56CRUISE
2019-10-27 17:55:2127045736122875-56CRUISE
2019-10-27 17:56:2127045636122892-56CRUISE
2019-10-27 17:57:2127045736134910-56CRUISE
2019-10-27 17:58:2127045636184927-56CRUISE
2019-10-27 17:59:2127546536192947-56CRUISE
2019-10-27 18:00:2127346136185964-56CRUISE
2019-10-27 18:01:2127346236185982-56CRUISE
2019-10-27 18:02:21273462361951000-56CRUISE
2019-10-27 18:03:21273461362371018-56CRUISE
2019-10-27 18:04:21273462362391036-56CRUISE
2019-10-27 18:05:21273462362391054-56CRUISE
2019-10-27 18:06:21273461362121072-56CRUISE
2019-10-27 18:07:21273461362161089-56CRUISE
2019-10-27 18:08:21273462362371107-56CRUISE
2019-10-27 18:09:21273462362381125-56CRUISE
2019-10-27 18:10:21273462362381143-56CRUISE
2019-10-27 18:11:21273463362581161-56CRUISE
2019-10-27 18:12:21273462362901179-56CRUISE
2019-10-27 18:13:21273462362921197-56CRUISE
2019-10-27 18:14:21273460362951215-56CRUISE
2019-10-27 18:15:21273459362861232-56CRUISE
2019-10-27 18:16:21272459362611250-56CRUISE
2019-10-27 18:17:21273460362151268-56CRUISE
2019-10-27 18:18:21273459362071285-56CRUISE
2019-10-27 18:19:21273461361991303-56CRUISE
2019-10-27 18:20:21273460361911321-56CRUISE
2019-10-27 18:21:21273460361691339-56CRUISE
2019-10-27 18:22:21273460361221356-56CRUISE
2019-10-27 18:23:21273460361141374-56CRUISE
2019-10-27 18:24:21273460361061392-56CRUISE
2019-10-27 18:25:21273460360991409-56CRUISE
2019-10-27 18:26:21273457360921426-56CRUISE
2019-10-27 18:27:21273457360721444-55CRUISE
2019-10-27 18:28:21273457360711462-55CRUISE
2019-10-27 18:29:21273456360691479-55CRUISE
2019-10-27 18:30:21273456360701497-55CRUISE
2019-10-27 18:31:21273456360701515-55CRUISE
2019-10-27 18:32:21273455360691532-55CRUISE
2019-10-27 18:33:21273455360691550-55CRUISE
2019-10-27 18:34:21273453360681567-55CRUISE
2019-10-27 18:35:21273453360611585-55CRUISE
2019-10-27 18:36:21273451360401602-56CRUISE
2019-10-27 18:37:21273451360401620-56CRUISE
2019-10-27 18:38:21273450360391638-56CRUISE
2019-10-27 18:39:21273436360391656-56CRUISE
2019-10-27 18:40:21273437360371673-56CRUISE
2019-10-27 18:41:21273436360361691-56CRUISE
2019-10-27 18:42:21273436360361709-56CRUISE
2019-10-27 18:43:21273435360351727-56CRUISE
2019-10-27 18:44:21273435360531744-56CRUISE
2019-10-27 18:45:21273434360531761-56CRUISE
2019-10-27 18:46:21273433360521779-56CRUISE
2019-10-27 18:47:21273433360501796-56CRUISE
2019-10-27 18:48:21273433360501814-56CRUISE
2019-10-27 18:49:21273431360531831-56CRUISE
2019-10-27 18:50:21273432360551848-56CRUISE
2019-10-27 18:51:21273431360521866-56CRUISE
2019-10-27 18:52:21273430360591883-56CRUISE
2019-10-27 18:53:21273429360681900-56CRUISE
2019-10-27 18:54:21273431360691918-56CRUISE
2019-10-27 18:55:21269435369221942-56CLIMBING
2019-10-27 18:56:21273440370681963-56CRUISE
2019-10-27 18:57:21273440370681981-56CRUISE
2019-10-27 18:58:21273439370672000-56CRUISE
2019-10-27 18:59:21273438370662018-56CRUISE
2019-10-27 19:00:21273437370652036-56CRUISE
2019-10-27 19:01:21273440370632055-56CRUISE
2019-10-27 19:02:21273440370432074-56CRUISE
2019-10-27 19:03:21273440370352092-56CRUISE
2019-10-27 19:04:21273463370662111-56CRUISE
2019-10-27 19:05:21273464370342129-56CRUISE
2019-10-27 19:06:21273464370342148-56CRUISE
2019-10-27 19:07:21273464370342166-56CRUISE
2019-10-27 19:08:21273464370332185-56CRUISE
2019-10-27 19:09:21273464370332203-56CRUISE
2019-10-27 19:10:21273462370342221-56CRUISE
2019-10-27 19:11:21273465370322240-56CRUISE
2019-10-27 19:12:21273465370322259-56CRUISE
2019-10-27 19:13:21273464370322277-56CRUISE
2019-10-27 19:14:21273463370552295-56CRUISE
2019-10-27 19:15:21273463370552312-56CRUISE
2019-10-27 19:16:21273465370342331-56CRUISE
2019-10-27 19:17:21273465370262349-56CRUISE
2019-10-27 19:18:21273467370262367-56CRUISE
2019-10-27 19:19:21273467370262385-56CRUISE
2019-10-27 19:20:21273468370252403-56CRUISE
2019-10-27 19:21:21273468370042421-56CRUISE
2019-10-27 19:22:21273467370012438-56CRUISE
2019-10-27 19:23:21273466369992456-56CRUISE
2019-10-27 19:24:21273468369992475-56CRUISE
2019-10-27 19:25:21273469369952492-56CRUISE
2019-10-27 19:26:21273469369782510-56CRUISE
2019-10-27 19:27:21273468369782528-56CRUISE
2019-10-27 19:28:21273469369832546-56CRUISE
2019-10-27 19:29:21273471369812564-56CRUISE
2019-10-27 19:30:21273479369722582-56CRUISE
2019-10-27 19:31:21272481369702600-56CRUISE
2019-10-27 19:32:21273481369682618-56CRUISE
2019-10-27 19:33:21273481369682636-56CRUISE
2019-10-27 19:34:21273481369772654-56CRUISE
2019-10-27 19:35:21273481369902672-56CRUISE
2019-10-27 19:36:21273481369892690-56CRUISE
2019-10-27 19:37:21273482369882708-56CRUISE
2019-10-27 19:38:21273493369932726-56CRUISE
2019-10-27 19:39:21273492370472744-56CRUISE
2019-10-27 19:40:21273495370752762-56CRUISE
2019-10-27 19:41:21273495370782780-56CRUISE
2019-10-27 19:42:21273491370792798-56CRUISE
2019-10-27 19:43:21273491370802816-56CRUISE
2019-10-27 19:44:21273491370812833-56CRUISE
2019-10-27 19:45:21273493370812851-56CRUISE
2019-10-27 19:46:21273467370872869-56CRUISE
2019-10-27 19:47:21273472370662887-56CRUISE
2019-10-27 19:48:21273470370522905-56CRUISE
2019-10-27 19:49:21273471370542923-56CRUISE
2019-10-27 19:50:21273473370572941-56CRUISE
2019-10-27 19:51:21273473370602959-56CRUISE
2019-10-27 19:52:21273473370502976-56CRUISE
2019-10-27 19:53:21273475370392994-56CRUISE
2019-10-27 19:54:21273476370423012-56CRUISE
2019-10-27 19:55:21273476370373030-56CRUISE
2019-10-27 19:56:21273478370393048-56CRUISE
2019-10-27 19:57:21273478370433066-56CRUISE
2019-10-27 19:58:21273476370463084-56CRUISE
2019-10-27 19:59:21273476370473101-56CRUISE
2019-10-27 20:00:21272477370463119-56CRUISE
2019-10-27 20:01:21273479370483137-56CRUISE
2019-10-27 20:02:21273481370253155-56CRUISE
2019-10-27 20:03:21273481370133173-56CRUISE
2019-10-27 20:04:21273481370143191-56CRUISE
2019-10-27 20:05:21273481370153208-56CRUISE
2019-10-27 20:06:21273481370153226-56CRUISE
2019-10-27 20:07:21274483370183244-56CRUISE
2019-10-27 20:08:21273482370173262-56CRUISE
2019-10-27 20:09:21273482370173280-56CRUISE
2019-10-27 20:10:21273482370083297-56CRUISE
2019-10-27 20:11:21273484370353316-56CRUISE
2019-10-27 20:12:21273484370363334-56CRUISE
2019-10-27 20:13:21272486370343352-56CRUISE
2019-10-27 20:14:21273487370383370-56CRUISE
2019-10-27 20:15:21273487370273388-56CRUISE
2019-10-27 20:16:21273487370133406-56CRUISE
2019-10-27 20:17:21273488370063424-56CRUISE
2019-10-27 20:18:21273488370023442-56CRUISE
2019-10-27 20:19:21273488370033460-56CRUISE
2019-10-27 20:20:21273489370053478-56CRUISE
2019-10-27 20:21:21273489370063496-56CRUISE
2019-10-27 20:22:21273489370073514-56CRUISE
2019-10-27 20:23:21273492370063532-56CRUISE
2019-10-27 20:24:21273491370093550-56CRUISE
2019-10-27 20:25:21273491369963566-56CRUISE
2019-10-27 20:26:21273489369963583-56CRUISE
2019-10-27 20:27:21273490369983601-56CRUISE
2019-10-27 20:28:21273492369823619-56CRUISE
2019-10-27 20:29:21273492369463636-56CRUISE
2019-10-27 20:30:21273493369473654-56CRUISE
2019-10-27 20:31:21273493369483671-56CRUISE
2019-10-27 20:32:21273493369373688-56CRUISE
2019-10-27 20:33:21273493369383706-56CRUISE
2019-10-27 20:34:21273493369393724-56CRUISE
2019-10-27 20:35:21273494369403741-56CRUISE
2019-10-27 20:36:21273492369413758-56CRUISE
2019-10-27 20:37:21272493369413776-56CRUISE
2019-10-27 20:38:21273494369303793-56CRUISE
2019-10-27 20:39:21273497369313811-56CRUISE
2019-10-27 20:40:21273499369283828-56CRUISE
2019-10-27 20:41:21273498369383846-56CRUISE
2019-10-27 20:42:21273498369513864-56CRUISE
2019-10-27 20:43:21273498369553881-56CRUISE
2019-10-27 20:44:21272498369583898-56CRUISE
2019-10-27 20:45:21273498369623916-56CRUISE
2019-10-27 20:46:21273498369653934-56CRUISE
2019-10-27 20:47:21273498369593951-56CRUISE
2019-10-27 20:48:21273497369603968-56CRUISE
2019-10-27 20:49:21273497369613986-56CRUISE
2019-10-27 20:50:21273497369624003-56CRUISE
2019-10-27 20:51:21273497369634021-56CRUISE
2019-10-27 20:52:21273497369644038-56CRUISE
2019-10-27 20:53:21273497369654056-56CRUISE
2019-10-27 20:54:21273496369574073-56CRUISE
2019-10-27 20:55:21273494369574091-56CRUISE
2019-10-27 20:56:21273494369594108-56CRUISE
2019-10-27 20:57:21273510369584125-56CRUISE
2019-10-27 20:58:21273517369624143-56CRUISE
2019-10-27 20:59:21273517369644160-56CRUISE
2019-10-27 21:00:21273516369654178-56CRUISE
2019-10-27 21:01:21273516369654195-56CRUISE
2019-10-27 21:02:21273516369614213-56CRUISE
2019-10-27 21:03:21273515369534230-56CRUISE
2019-10-27 21:04:21273515369284247-56CRUISE
2019-10-27 21:05:21273514369244265-56CRUISE
2019-10-27 21:06:21273513369204282-56CRUISE
2019-10-27 21:07:21273512369164299-56CRUISE
2019-10-27 21:08:21273513368974317-56CRUISE
2019-10-27 21:09:21273512368844334-56CRUISE
2019-10-27 21:10:21273510368854351-56CRUISE
2019-10-27 21:11:21273508368864368-56CRUISE
2019-10-27 21:12:21273508368824385-56CRUISE
2019-10-27 21:13:21273507368374402-56CRUISE
2019-10-27 21:14:21273504368354419-56CRUISE
2019-10-27 21:15:21273497368374436-56CRUISE
2019-10-27 21:16:21273497368334454-56CRUISE
2019-10-27 21:17:21273497368344471-56CRUISE
2019-10-27 21:18:21273497368354488-56CRUISE
2019-10-27 21:19:21273497368384505-56CRUISE
2019-10-27 21:20:21273496368364522-56CRUISE
2019-10-27 21:21:21273496368144539-56CRUISE
2019-10-27 21:22:21273494368114556-56CRUISE
2019-10-27 21:23:21273493368074573-56CRUISE
2019-10-27 21:24:21273492368084590-56CRUISE
2019-10-27 21:25:21273491368084607-56CRUISE
2019-10-27 21:26:21273491368094624-56CRUISE
2019-10-27 21:27:21273490368094641-56CRUISE
2019-10-27 21:28:21273489368104659-56CRUISE
2019-10-27 21:29:21273489368114675-56CRUISE
2019-10-27 21:30:21273486367844692-56CRUISE
2019-10-27 21:31:21273486367554709-56CRUISE
2019-10-27 21:32:21273487367564726-56CRUISE
2019-10-27 21:33:21273487367554743-56CRUISE
2019-10-27 21:34:21273487367354760-56CRUISE
2019-10-27 21:35:21273487367304777-56CRUISE
2019-10-27 21:36:21273487367304794-56CRUISE
2019-10-27 21:37:21273487367314811-56CRUISE
2019-10-27 21:38:21273486367124828-56CRUISE
2019-10-27 21:39:21273486366924845-56CRUISE
2019-10-27 21:40:21273485366914862-56CRUISE
2019-10-27 21:41:21273485366924880-56CRUISE
2019-10-27 21:42:21273485366944897-56CRUISE
2019-10-27 21:43:21273484366824913-56CRUISE
2019-10-27 21:44:21273484366674931-56CRUISE
2019-10-27 21:45:21273483366664948-56CRUISE
2019-10-27 21:46:21273483366664965-56CRUISE
2019-10-27 21:47:21273483366664982-56CRUISE
2019-10-27 21:48:21273483366174999-56CRUISE
2019-10-27 21:49:21273483365865016-56CRUISE
2019-10-27 21:50:21273483365865033-56CRUISE
2019-10-27 21:51:21273467348545044-54DESCEND
2019-10-27 21:52:21273442323295050-49DESCEND
2019-10-27 21:53:21273417298035056-45DESCEND
2019-10-27 21:54:21273403272965062-40DESCEND
2019-10-27 21:55:21273390247915068-35DESCEND
2019-10-27 21:56:21273377222825073-31DESCEND
2019-10-27 21:57:21273367201555079-27DESCEND
2019-10-27 21:58:21273358180545084-23DESCEND
2019-10-27 21:59:21240307161035088-19DESCEND
2019-10-27 22:00:21240300145035093-17DESCEND
2019-10-27 22:01:21239294133525099-14DESCEND
2019-10-27 22:02:21240290125535106-13DESCEND
2019-10-27 22:03:21240287117545113-11DESCEND
2019-10-27 22:04:21240283109525121-10DESCEND
2019-10-27 22:05:21240280101525128-9DESCEND
2019-10-27 22:06:2124027693475135-8DESCEND
2019-10-27 22:07:2124027385475143-7DESCEND
2019-10-27 22:08:2124026977475151-5DESCEND
2019-10-27 22:09:2124026669495158-4DESCEND
2019-10-27 22:10:2122724962525165-3DESCEND
2019-10-27 22:11:2120922854535171-1DESCEND
2019-10-27 22:12:21202217463251770DESCEND
2019-10-27 22:13:21184196359751821DESCEND
2019-10-27 22:14:21179210297951892CRUISE
2019-10-27 22:15:21158185266951952DESCEND
2019-10-27 22:16:21160186228252043DESCEND
2019-10-27 22:17:21160184189052123DESCEND
2019-10-27 22:18:21160174149352214DESCEND
2019-10-27 22:19:21160142146752314CRUISE
2019-10-27 22:20:21155143146052414CRUISE
2019-10-27 22:21:21156138138452514CRUISE
2019-10-27 22:22:2116714780652655DESCEND
2019-10-27 22:23:2112110113152737DESCEND
2019-10-27 22:24:2101314152807TAXI TO THE GATE
2019-10-27 22:25:2162713252867TAXI TO THE GATE
2019-10-27 22:26:2131213152927TAXI TO THE GATE
2019-10-27 22:27:2117013252997TAXI TO THE GATE
2019-10-27 22:28:2117013253007TAXI TO THE GATE
2019-10-27 22:29:2117013253007TAXI TO THE GATE
2019-10-27 22:30:2117013253007TAXI TO THE GATE
2019-10-27 22:31:2117013253007TAXI TO THE GATE
2019-10-27 22:32:2117013253007TAXI TO THE GATE